Thursday, January 18, 2018, 8:48 PM EST
Back to Local

KLEW, Auburn-lewiston

Location: Auburn, ME, United States Lat: 44.05
Local Time: 8:48 PM EST ( 1:48 GMT) Lon: -70.283
Time Zone: US/Eastern Elev: 288 ft

Show me the last for .
Show Decoded

2018-01-18 19:56 METAR KLEW 190056Z AUTO 00000KT 10SM CLR M10/M12 A2989 RMK AO2 SLP137 T11001122
                 FZRANO =
2018-01-18 18:56 METAR KLEW 182356Z AUTO 00000KT 10SM CLR M07/M09 A2988 RMK AO2 SLP133 T10671089
                 11006 21089 53013 FZRANO =
2018-01-18 17:56 METAR KLEW 182256Z AUTO 00000KT 10SM CLR M08/M12 A2986 RMK AO2 SLP128 T10781122
                 FZRANO =
2018-01-18 16:56 METAR KLEW 182156Z AUTO 31003KT 10SM CLR M04/M08 A2985 RMK AO2 SLP124 T10391083
                 FZRANO =
2018-01-18 15:56 METAR KLEW 182056Z AUTO 34008KT 10SM FEW037 M02/M08 A2984 RMK AO2 SLP120
                 T10171083 55006 FZRANO =
2018-01-18 14:56 METAR KLEW 181956Z AUTO 31009KT 10SM CLR M02/M08 A2983 RMK AO2 SLP116 T10171083
                 FZRANO =
2018-01-18 13:56 METAR KLEW 181856Z AUTO 31007KT 10SM CLR M01/M08 A2984 RMK AO2 SLP120 T10061078
                 FZRANO =
2018-01-18 12:56 METAR KLEW 181756Z AUTO 33010KT 10SM CLR M01/M08 A2985 RMK AO2 SLP127 60001
                 T10111083 10011 21128 58028 FZRANO =

Support USWX by starting your Amazon purchase here.